createdAt,value
2022-11-30T00:01:13.069Z,11.6
2022-11-30T00:06:48.253Z,11.6
2022-11-30T00:12:24.162Z,11.6
2022-11-30T00:17:58.990Z,11.7
2022-11-30T00:23:34.999Z,11.7
2022-11-30T00:29:20.277Z,11.7
2022-11-30T00:34:55.634Z,11.7
2022-11-30T00:40:30.485Z,11.8
2022-11-30T00:46:05.942Z,11.8
2022-11-30T00:51:42.726Z,11.8
2022-11-30T00:57:27.439Z,11.8
2022-11-30T01:03:03.017Z,11.8
2022-11-30T01:08:39.588Z,11.8
2022-11-30T01:14:15.781Z,11.8
2022-11-30T01:19:50.981Z,11.8
2022-11-30T01:25:27.156Z,11.8
2022-11-30T01:31:02.475Z,11.8
2022-11-30T01:36:38.551Z,11.8
2022-11-30T01:42:14.059Z,11.8
2022-11-30T01:48:12.360Z,11.8
2022-11-30T01:53:45.402Z,11.8
2022-11-30T01:59:20.886Z,11.7
2022-11-30T02:04:57.248Z,11.7
2022-11-30T02:10:33.273Z,11.6
2022-11-30T02:16:08.135Z,11.5
2022-11-30T02:22:21.113Z,11.4
2022-11-30T02:27:56.429Z,11.4
2022-11-30T02:33:32.695Z,11.4
2022-11-30T02:39:08.073Z,11.4
2022-11-30T02:44:52.166Z,11.4
2022-11-30T02:50:27.466Z,11.4
2022-11-30T02:56:06.287Z,11.3
2022-11-30T03:01:41.122Z,11.3
2022-11-30T03:07:17.274Z,11.2
2022-11-30T03:12:53.244Z,11.2
2022-11-30T03:18:29.250Z,11.2
2022-11-30T03:24:04.197Z,11.2
2022-11-30T03:29:39.212Z,11.2
2022-11-30T03:35:23.420Z,11.3
2022-11-30T03:40:58.692Z,11.3
2022-11-30T03:46:55.246Z,11.2
2022-11-30T03:52:29.078Z,11.2
2022-11-30T03:58:13.235Z,11.1
2022-11-30T04:03:48.016Z,11.1
2022-11-30T04:09:27.226Z,11.1
2022-11-30T04:15:02.718Z,11
2022-11-30T04:20:40.619Z,11
2022-11-30T04:26:34.825Z,10.9
2022-11-30T04:32:17.265Z,10.9
2022-11-30T04:38:14.609Z,10.9
2022-11-30T04:43:57.608Z,10.8
2022-11-30T04:49:54.647Z,10.8
2022-11-30T04:55:27.213Z,10.8
2022-11-30T05:01:06.835Z,10.7
2022-11-30T05:06:44.694Z,10.7
2022-11-30T05:12:28.675Z,10.7
2022-11-30T05:18:04.898Z,10.7
2022-11-30T05:23:48.263Z,10.6
2022-11-30T05:29:24.589Z,10.6
2022-11-30T05:35:01.006Z,10.5
2022-11-30T05:40:36.243Z,10.5
2022-11-30T05:46:36.007Z,10.5
2022-11-30T05:52:14.792Z,10.5
2022-11-30T05:57:49.696Z,10.5
2022-11-30T06:03:24.715Z,10.4
2022-11-30T06:09:01.937Z,10.4
2022-11-30T06:14:38.146Z,10.4
2022-11-30T06:20:16.136Z,10.4
2022-11-30T06:25:51.343Z,10.4
2022-11-30T06:31:29.278Z,10.4
2022-11-30T06:37:04.646Z,10.3
2022-11-30T06:42:39.535Z,10.4
2022-11-30T06:48:37.996Z,10.3
2022-11-30T06:54:12.196Z,10.3
2022-11-30T06:59:47.444Z,10.2
2022-11-30T07:05:22.458Z,10.2
2022-11-30T07:11:18.912Z,10.1
2022-11-30T07:17:15.037Z,10.1
2022-11-30T07:22:59.538Z,10.1
2022-11-30T07:28:34.444Z,10.1
2022-11-30T07:34:10.784Z,10.1
2022-11-30T07:39:46.394Z,10.1
2022-11-30T07:45:21.841Z,10
2022-11-30T07:50:58.503Z,10
2022-11-30T07:56:36.429Z,8.8
2022-11-30T08:02:11.452Z,8.4
2022-11-30T08:07:49.626Z,8.2
2022-11-30T08:13:25.741Z,8
2022-11-30T08:19:10.126Z,7.6
2022-11-30T08:24:45.498Z,7.6
2022-11-30T08:30:25.264Z,7.7
2022-11-30T08:36:09.940Z,7.7
2022-11-30T08:41:44.872Z,7.9
2022-11-30T08:48:12.732Z,8.3
2022-11-30T08:53:45.642Z,8.5
2022-11-30T08:59:21.091Z,8.8
2022-11-30T09:04:56.659Z,9.1
2022-11-30T09:10:32.384Z,9.4
2022-11-30T09:16:07.946Z,9.8
2022-11-30T09:21:49.711Z,9.8
2022-11-30T09:27:27.871Z,9.6
2022-11-30T09:33:03.454Z,10.2
2022-11-30T09:38:38.794Z,10.4
2022-11-30T09:44:15.710Z,10.5
2022-11-30T09:49:52.019Z,10.9
2022-11-30T09:55:37.038Z,11.2
2022-11-30T10:01:12.532Z,11.2
2022-11-30T10:07:19.667Z,10.8
2022-11-30T10:12:59.731Z,10.7
2022-11-30T10:18:34.600Z,10.8
2022-11-30T10:24:10.507Z,11.1
2022-11-30T10:30:06.932Z,11.3
2022-11-30T10:35:41.901Z,11.5
2022-11-30T10:41:24.878Z,11.8
2022-11-30T10:47:21.650Z,12.2
2022-11-30T10:52:56.079Z,12.3
2022-11-30T10:58:38.562Z,12.6
2022-11-30T11:04:13.663Z,13
2022-11-30T11:09:50.210Z,13
2022-11-30T11:15:26.000Z,12.9
2022-11-30T11:21:05.744Z,12.8
2022-11-30T11:26:43.138Z,13
2022-11-30T11:32:18.287Z,13.5
2022-11-30T11:37:53.458Z,14
2022-11-30T11:43:28.445Z,14.2
2022-11-30T11:49:26.362Z,14.1
2022-11-30T11:54:59.649Z,14.3
2022-11-30T12:00:34.652Z,14.3
2022-11-30T12:06:09.656Z,14.7
2022-11-30T12:11:45.093Z,14.9
2022-11-30T12:17:21.172Z,15.2
2022-11-30T12:22:56.521Z,15.2
2022-11-30T12:28:32.312Z,15.3
2022-11-30T12:34:07.286Z,15.2
2022-11-30T12:39:43.654Z,15.2
2022-11-30T12:45:21.291Z,15.1
2022-11-30T12:50:57.341Z,15.2
2022-11-30T12:56:32.496Z,14.8
2022-11-30T13:02:07.752Z,14.7
2022-11-30T13:07:52.420Z,14.5
2022-11-30T13:13:28.980Z,14.2
2022-11-30T13:19:04.083Z,13.9
2022-11-30T13:24:38.843Z,14
2022-11-30T13:30:14.958Z,14.4
2022-11-30T13:35:51.004Z,15
2022-11-30T13:41:26.156Z,14.7
2022-11-30T13:47:22.865Z,14.9
2022-11-30T13:52:57.384Z,17.4
2022-11-30T13:58:34.671Z,18
2022-11-30T14:04:10.117Z,19.4
2022-11-30T14:09:46.241Z,22.4
2022-11-30T14:15:24.336Z,22
2022-11-30T14:21:00.090Z,17.4
2022-11-30T14:26:35.663Z,15.6
2022-11-30T14:32:10.789Z,14.7
2022-11-30T14:37:46.254Z,14.2
2022-11-30T14:43:21.664Z,13.7
2022-11-30T14:49:18.602Z,13.5
2022-11-30T14:54:51.886Z,13.1
2022-11-30T15:00:26.998Z,12.6
2022-11-30T15:06:02.038Z,12.1
2022-11-30T15:11:37.511Z,11.9
2022-11-30T15:17:12.589Z,11.6
2022-11-30T15:22:47.927Z,11.3
2022-11-30T15:28:22.814Z,11.3
2022-11-30T15:33:58.961Z,11.2
2022-11-30T15:39:34.145Z,11.1
2022-11-30T15:45:18.246Z,11.2
2022-11-30T15:50:53.256Z,10.8
2022-11-30T15:56:28.491Z,10.4
2022-11-30T16:02:04.246Z,10
2022-11-30T16:07:42.314Z,9.7
2022-11-30T16:13:18.517Z,9.8
2022-11-30T16:18:53.882Z,9.7
2022-11-30T16:24:29.300Z,9.5
2022-11-30T16:30:08.443Z,9.2
2022-11-30T16:35:43.816Z,9.1
2022-11-30T16:41:18.889Z,9
2022-11-30T16:47:15.879Z,8.9
2022-11-30T16:52:48.665Z,8.8
2022-11-30T16:58:24.726Z,8.6
2022-11-30T17:04:00.059Z,9
2022-11-30T17:09:35.545Z,9.9
2022-11-30T17:15:10.835Z,10.3
2022-11-30T17:20:50.173Z,10.4
2022-11-30T17:26:34.165Z,10.6
2022-11-30T17:32:11.915Z,10.6
2022-11-30T17:37:49.865Z,10.7
2022-11-30T17:43:24.942Z,10.7
2022-11-30T17:49:22.398Z,10.8
2022-11-30T17:54:56.798Z,10.8
2022-11-30T18:00:32.113Z,10.9
2022-11-30T18:06:09.773Z,11
2022-11-30T18:11:47.658Z,11.1
2022-11-30T18:17:23.144Z,11.1
2022-11-30T18:22:58.631Z,11.2
2022-11-30T18:28:33.759Z,11.2
2022-11-30T18:34:08.388Z,11.3
2022-11-30T18:39:44.609Z,11.3
2022-11-30T18:45:22.606Z,11.4
2022-11-30T18:50:57.659Z,11.4
2022-11-30T18:56:32.679Z,11.4
2022-11-30T19:02:07.917Z,11.4
2022-11-30T19:07:44.804Z,11.4
2022-11-30T19:13:41.428Z,11.4
2022-11-30T19:19:16.116Z,11.5
2022-11-30T19:24:59.440Z,11.5
2022-11-30T19:30:34.738Z,11.5
2022-11-30T19:36:10.722Z,11.5
2022-11-30T19:42:01.592Z,11.5
2022-11-30T19:47:39.844Z,11.4
2022-11-30T19:53:15.901Z,11.4
2022-11-30T19:59:04.334Z,11.4
2022-11-30T20:04:42.898Z,11.4
2022-11-30T20:10:18.962Z,11.4
2022-11-30T20:15:54.087Z,11.4
2022-11-30T20:21:30.547Z,11.4
2022-11-30T20:27:05.924Z,11.4
2022-11-30T20:32:42.670Z,11.4
2022-11-30T20:38:17.591Z,11.4
2022-11-30T20:43:52.823Z,11.4
2022-11-30T20:49:52.733Z,11.4
2022-11-30T20:55:25.411Z,11.3
2022-11-30T21:01:03.444Z,11.3
2022-11-30T21:06:38.471Z,11.3
2022-11-30T21:12:18.414Z,11.3
2022-11-30T21:19:27.834Z,11.3
2022-11-30T21:25:03.021Z,11.3
2022-11-30T21:30:39.315Z,11.3
2022-11-30T21:36:19.809Z,11.3
2022-11-30T21:41:54.657Z,11.3
2022-11-30T21:48:39.125Z,11.3
2022-11-30T21:54:11.943Z,11.3
2022-11-30T21:59:47.381Z,11.3
2022-11-30T22:05:26.573Z,11.3
2022-11-30T22:11:05.231Z,11.3
2022-11-30T22:17:09.439Z,11.3
2022-11-30T22:23:02.657Z,11.3
2022-11-30T22:28:40.286Z,11.2
2022-11-30T22:34:15.647Z,11.2
2022-11-30T22:39:51.008Z,11.2
2022-11-30T22:45:26.062Z,11.2
2022-11-30T22:51:01.233Z,11.2
2022-11-30T22:57:00.139Z,11.2
2022-11-30T23:02:35.576Z,11.2
2022-11-30T23:09:57.318Z,11.2
2022-11-30T23:15:32.049Z,11.2
2022-11-30T23:21:09.769Z,11.2
2022-11-30T23:26:44.893Z,11.1
2022-11-30T23:32:20.242Z,11.1
2022-11-30T23:37:56.661Z,11.1
2022-11-30T23:43:42.117Z,11.1
2022-11-30T23:49:38.920Z,11.1
2022-11-30T23:55:11.649Z,11
